createdAt,value
2019-05-15T00:02:25.083Z,9.13
2019-05-15T00:04:58.378Z,7.67
2019-05-15T00:07:30.333Z,7.83
2019-05-15T00:10:01.747Z,8.30
2019-05-15T00:12:33.237Z,8.37
2019-05-15T00:15:04.714Z,8.50
2019-05-15T00:17:36.250Z,8.30
2019-05-15T00:20:09.845Z,9.87
2019-05-15T00:22:40.776Z,9.27
2019-05-15T00:25:12.233Z,9.87
2019-05-15T00:27:43.574Z,9.60
2019-05-15T00:30:15.095Z,8.20
2019-05-15T00:32:48.526Z,8.47
2019-05-15T00:35:19.406Z,8.53
2019-05-15T00:37:50.781Z,8.63
2019-05-15T00:40:22.102Z,8.87
2019-05-15T00:42:53.476Z,9.10
2019-05-15T00:45:24.855Z,9.30
2019-05-15T00:47:57.915Z,8.57
2019-05-15T00:50:29.349Z,9.13
2019-05-15T00:53:02.482Z,12.00
2019-05-15T00:55:33.776Z,8.50
2019-05-15T00:58:05.178Z,8.67
2019-05-15T01:00:42.635Z,8.90
2019-05-15T01:03:14.188Z,10.63
2019-05-15T01:05:47.853Z,8.43
2019-05-15T01:08:21.480Z,9.60
2019-05-15T01:10:52.867Z,9.13
2019-05-15T01:13:24.249Z,9.20
2019-05-15T01:15:55.591Z,8.57
2019-05-15T01:18:29.227Z,8.47
2019-05-15T01:21:00.742Z,8.40
2019-05-15T01:23:32.116Z,8.20
2019-05-15T01:26:03.621Z,8.27
2019-05-15T01:28:34.999Z,9.90
2019-05-15T01:31:08.492Z,8.07
2019-05-15T01:33:39.470Z,8.83
2019-05-15T01:36:10.825Z,8.07
2019-05-15T01:38:42.233Z,7.77
2019-05-15T01:41:13.578Z,8.27
2019-05-15T01:43:44.991Z,7.87
2019-05-15T01:46:18.897Z,7.93
2019-05-15T01:48:49.592Z,7.70
2019-05-15T01:51:20.919Z,7.40
2019-05-15T01:53:52.258Z,7.20
2019-05-15T01:56:23.718Z,6.70
2019-05-15T01:58:55.023Z,7.37
2019-05-15T02:01:28.366Z,7.93
2019-05-15T02:04:05.664Z,7.90
2019-05-15T02:06:39.104Z,7.87
2019-05-15T02:09:10.159Z,6.87
2019-05-15T02:11:41.550Z,8.13
2019-05-15T02:14:12.937Z,7.03
2019-05-15T02:16:44.209Z,7.23
2019-05-15T02:19:15.598Z,7.70
2019-05-15T02:21:48.608Z,6.60
2019-05-15T02:24:20.264Z,7.57
2019-05-15T02:26:51.769Z,7.17
2019-05-15T02:29:25.131Z,7.03
2019-05-15T02:31:59.232Z,6.83
2019-05-15T02:34:30.304Z,8.77
2019-05-15T02:37:02.160Z,7.57
2019-05-15T02:39:33.691Z,6.77
2019-05-15T02:42:05.183Z,7.43
2019-05-15T02:44:39.655Z,7.70
2019-05-15T02:47:09.668Z,7.33
2019-05-15T02:49:41.058Z,8.10
2019-05-15T02:52:12.404Z,8.67
2019-05-15T02:54:43.925Z,7.30
2019-05-15T02:57:19.030Z,8.27
2019-05-15T02:59:49.886Z,8.70
2019-05-15T03:02:22.382Z,9.93
2019-05-15T03:04:53.879Z,8.30
2019-05-15T03:07:25.343Z,9.57
2019-05-15T03:09:59.883Z,13.67
2019-05-15T03:12:31.182Z,9.67
2019-05-15T03:15:02.599Z,9.47
2019-05-15T03:17:33.982Z,10.63
2019-05-15T03:20:05.422Z,8.80
2019-05-15T03:22:39.660Z,9.30
2019-05-15T03:25:11.253Z,8.90
2019-05-15T03:27:42.775Z,10.53
2019-05-15T03:30:21.164Z,9.67
2019-05-15T03:32:55.815Z,9.20
2019-05-15T03:35:23.118Z,9.63
2019-05-15T03:37:54.683Z,9.03
2019-05-15T03:40:26.083Z,10.07
2019-05-15T03:42:59.353Z,9.17
2019-05-15T03:45:31.058Z,9.43
2019-05-15T03:48:02.484Z,11.33
2019-05-15T03:50:33.800Z,16.50
2019-05-15T03:53:05.115Z,9.13
2019-05-15T03:55:36.499Z,9.07
2019-05-15T03:58:09.857Z,11.07
2019-05-15T04:00:40.956Z,8.63
2019-05-15T04:03:12.393Z,8.40
2019-05-15T04:05:43.694Z,9.27
2019-05-15T04:08:15.114Z,8.00
2019-05-15T04:10:48.755Z,9.93
2019-05-15T04:13:20.390Z,7.83
2019-05-15T04:15:51.789Z,8.37
2019-05-15T04:18:23.207Z,8.47
2019-05-15T04:20:54.596Z,8.73
2019-05-15T04:23:26.013Z,8.47
2019-05-15T04:25:59.060Z,9.27
2019-05-15T04:28:32.299Z,8.77
2019-05-15T04:31:03.652Z,8.47
2019-05-15T04:33:35.084Z,9.23
2019-05-15T04:36:09.491Z,8.50
2019-05-15T04:38:39.736Z,9.57
2019-05-15T04:41:11.345Z,7.97
2019-05-15T04:43:45.187Z,11.93
2019-05-15T04:46:19.332Z,9.37
2019-05-15T04:48:50.139Z,8.77
2019-05-15T04:51:22.826Z,7.60
2019-05-15T04:53:54.346Z,8.17
2019-05-15T04:56:29.125Z,7.50
2019-05-15T04:59:01.366Z,8.50
2019-05-15T05:01:32.796Z,7.70
2019-05-15T05:04:04.177Z,8.73
2019-05-15T05:06:38.469Z,7.53
2019-05-15T05:09:09.464Z,7.27
2019-05-15T05:11:41.520Z,7.13
2019-05-15T05:14:12.841Z,9.70
2019-05-15T05:16:44.221Z,6.70
2019-05-15T05:19:15.914Z,7.30
2019-05-15T05:21:47.948Z,7.47
2019-05-15T05:24:19.375Z,7.93
2019-05-15T05:26:50.649Z,9.07
2019-05-15T05:29:22.027Z,8.23
2019-05-15T05:31:53.402Z,7.17
2019-05-15T05:34:28.320Z,9.73
2019-05-15T05:36:59.894Z,6.87
2019-05-15T05:39:31.418Z,7.73
2019-05-15T05:42:03.313Z,6.20
2019-05-15T05:44:34.679Z,8.07
2019-05-15T05:47:09.255Z,6.93
2019-05-15T05:49:45.388Z,7.00
2019-05-15T05:52:52.924Z,8.67
2019-05-15T05:56:00.606Z,9.13
2019-05-15T05:59:09.359Z,8.97
2019-05-15T06:01:44.136Z,11.50
2019-05-15T06:04:15.837Z,9.03
2019-05-15T06:06:50.077Z,8.73
2019-05-15T06:09:20.223Z,8.23
2019-05-15T06:11:51.594Z,9.20
2019-05-15T06:14:22.864Z,8.93
2019-05-15T06:16:54.279Z,8.53
2019-05-15T06:19:27.654Z,8.97
2019-05-15T06:22:01.048Z,9.17
2019-05-15T06:24:31.823Z,9.13
2019-05-15T06:27:03.144Z,9.10
2019-05-15T06:29:34.606Z,8.43
2019-05-15T06:32:07.995Z,8.73
2019-05-15T06:34:39.579Z,8.90
2019-05-15T06:37:12.510Z,9.77
2019-05-15T06:39:43.941Z,9.43
2019-05-15T06:42:15.237Z,9.80
2019-05-15T06:44:48.377Z,9.67
2019-05-15T06:47:19.755Z,9.10
2019-05-15T06:49:54.157Z,8.80
2019-05-15T06:52:25.556Z,7.50
2019-05-15T06:54:59.259Z,8.80
2019-05-15T06:57:32.305Z,9.63
2019-05-15T07:00:04.842Z,7.47
2019-05-15T07:02:38.256Z,8.77
2019-05-15T07:05:09.644Z,10.93
2019-05-15T07:07:41.000Z,8.20
2019-05-15T07:10:12.496Z,7.10
2019-05-15T07:12:43.980Z,7.30
2019-05-15T07:15:18.929Z,8.60
2019-05-15T07:17:50.283Z,7.27
2019-05-15T07:20:22.452Z,6.70
2019-05-15T07:22:54.203Z,7.13
2019-05-15T07:25:25.646Z,6.97
2019-05-15T07:27:58.055Z,7.30
2019-05-15T07:30:29.857Z,7.70
2019-05-15T07:33:01.173Z,6.43
2019-05-15T07:35:32.662Z,6.37
2019-05-15T07:38:03.996Z,6.70
2019-05-15T07:40:38.318Z,6.50
2019-05-15T07:43:09.488Z,5.90
2019-05-15T07:45:44.415Z,7.43
2019-05-15T07:48:15.664Z,10.90
2019-05-15T07:50:49.618Z,6.23
2019-05-15T07:53:22.630Z,7.47
2019-05-15T07:55:54.023Z,4.87
2019-05-15T07:58:28.391Z,5.47
2019-05-15T08:01:00.661Z,4.40
2019-05-15T08:03:32.385Z,5.57
2019-05-15T08:06:03.738Z,4.13
2019-05-15T08:08:39.354Z,4.87
2019-05-15T08:11:20.251Z,4.80
2019-05-15T08:13:45.148Z,6.47
2019-05-15T08:16:18.146Z,5.30
2019-05-15T08:18:49.647Z,5.37
2019-05-15T08:21:22.662Z,4.90
2019-05-15T08:23:53.900Z,4.13
2019-05-15T08:26:25.329Z,6.13
2019-05-15T08:28:57.965Z,4.80
2019-05-15T08:31:29.809Z,6.20
2019-05-15T08:34:12.591Z,4.73
2019-05-15T08:36:34.246Z,4.60
2019-05-15T08:39:08.508Z,9.47
2019-05-15T08:41:40.007Z,4.80
2019-05-15T08:44:29.137Z,6.60
2019-05-15T08:46:59.876Z,4.93
2019-05-15T08:49:31.194Z,5.90
2019-05-15T08:52:02.570Z,5.37
2019-05-15T08:54:34.135Z,7.63
2019-05-15T08:57:20.402Z,9.20
2019-05-15T08:59:51.342Z,7.40
2019-05-15T09:02:22.719Z,7.90
2019-05-15T09:04:54.024Z,7.30
2019-05-15T09:07:25.430Z,7.43
2019-05-15T09:09:59.899Z,7.53
2019-05-15T09:12:31.138Z,8.07
2019-05-15T09:15:02.524Z,7.40
2019-05-15T09:17:35.499Z,7.73
2019-05-15T09:20:08.296Z,7.13
2019-05-15T09:22:54.599Z,12.93
2019-05-15T09:25:28.640Z,8.93
2019-05-15T09:27:58.984Z,6.90
2019-05-15T09:30:30.445Z,13.70
2019-05-15T09:33:03.606Z,9.07
2019-05-15T09:35:35.012Z,8.90
2019-05-15T09:38:08.597Z,12.70
2019-05-15T09:40:46.140Z,8.33
2019-05-15T09:43:14.008Z,12.43
2019-05-15T09:45:49.289Z,8.83
2019-05-15T09:48:22.054Z,8.17
2019-05-15T09:50:53.316Z,9.27
2019-05-15T09:53:25.117Z,9.93
2019-05-15T09:55:56.591Z,10.57
2019-05-15T09:58:30.013Z,9.63
2019-05-15T10:01:01.745Z,9.90
2019-05-15T10:03:33.039Z,9.20
2019-05-15T10:06:04.691Z,10.70
2019-05-15T10:08:36.241Z,9.90
2019-05-15T10:11:10.025Z,11.00
2019-05-15T10:13:41.466Z,9.60
2019-05-15T10:16:12.839Z,10.50
2019-05-15T10:18:44.145Z,10.50
2019-05-15T10:21:18.390Z,16.77
2019-05-15T10:23:49.472Z,9.97
2019-05-15T10:26:21.076Z,9.80
2019-05-15T10:28:52.355Z,10.33
2019-05-15T10:31:23.780Z,10.30
2019-05-15T10:33:55.220Z,10.90
2019-05-15T10:36:28.013Z,11.63
2019-05-15T10:38:59.583Z,12.80
2019-05-15T10:41:31.004Z,11.10
2019-05-15T10:44:02.473Z,11.13
2019-05-15T10:46:33.982Z,11.57
2019-05-15T10:49:08.426Z,12.50
2019-05-15T10:51:39.682Z,11.60
2019-05-15T10:54:11.263Z,10.87
2019-05-15T10:56:42.743Z,12.07
2019-05-15T10:59:14.546Z,10.83
2019-05-15T11:01:48.748Z,11.00
2019-05-15T11:04:21.464Z,12.60
2019-05-15T11:06:52.819Z,11.00
2019-05-15T11:09:24.185Z,12.27
2019-05-15T11:11:58.166Z,10.77
2019-05-15T11:14:28.786Z,11.80
2019-05-15T11:17:01.739Z,11.27
2019-05-15T11:19:36.246Z,14.53
2019-05-15T11:22:08.915Z,11.70
2019-05-15T11:24:41.273Z,11.87
2019-05-15T11:27:12.597Z,10.50
2019-05-15T11:29:43.955Z,14.20
2019-05-15T11:32:15.402Z,10.83
2019-05-15T11:34:49.161Z,11.57
2019-05-15T11:37:19.639Z,14.63
2019-05-15T11:39:51.046Z,9.97
2019-05-15T11:42:22.307Z,10.47
2019-05-15T11:44:53.695Z,10.40
2019-05-15T11:47:25.206Z,14.63
2019-05-15T11:49:58.563Z,10.40
2019-05-15T11:52:29.656Z,8.90
2019-05-15T11:55:01.281Z,8.60
2019-05-15T11:57:42.564Z,9.53
2019-05-15T12:00:15.092Z,10.10
2019-05-15T12:02:41.617Z,9.67
2019-05-15T12:05:14.426Z,12.80
2019-05-15T12:07:47.863Z,11.63
2019-05-15T12:10:20.694Z,17.30
2019-05-15T12:12:51.983Z,9.70
2019-05-15T12:15:23.241Z,11.97
2019-05-15T12:17:54.502Z,9.63
2019-05-15T12:20:28.373Z,9.50
2019-05-15T12:22:59.516Z,10.17
2019-05-15T12:25:31.970Z,10.00
2019-05-15T12:28:03.500Z,10.73
2019-05-15T12:30:35.191Z,10.97
2019-05-15T12:33:09.270Z,10.80
2019-05-15T12:35:41.369Z,10.07
2019-05-15T12:38:12.626Z,10.40
2019-05-15T13:01:17.500Z,16.30
2019-05-15T13:03:45.569Z,12.33
2019-05-15T13:06:19.286Z,13.73
2019-05-15T13:08:50.159Z,19.43
2019-05-15T13:11:21.510Z,12.50
2019-05-15T13:13:53.594Z,14.50
2019-05-15T13:16:24.996Z,13.17
2019-05-15T13:18:58.638Z,14.10
2019-05-15T13:21:31.189Z,14.17
2019-05-15T13:24:02.594Z,14.17
2019-05-15T13:26:33.905Z,12.97
2019-05-15T13:29:05.356Z,13.80
2019-05-15T13:31:38.335Z,16.17
2019-05-15T13:34:09.855Z,14.50
2019-05-15T13:36:42.850Z,13.57
2019-05-15T13:39:14.252Z,18.93
2019-05-15T13:41:48.183Z,16.50
2019-05-15T13:44:18.934Z,17.47
2019-05-15T13:46:50.164Z,13.30
2019-05-15T13:49:21.548Z,13.10
2019-05-15T13:51:52.817Z,13.03
2019-05-15T13:54:24.192Z,14.63
2019-05-15T13:56:55.552Z,12.30
2019-05-15T13:59:28.808Z,17.63
2019-05-15T14:02:00.321Z,11.83
2019-05-15T14:04:31.801Z,11.37
2019-05-15T14:07:03.254Z,11.20
2019-05-15T14:09:34.795Z,10.63
2019-05-15T14:12:11.676Z,10.50
2019-05-15T14:14:39.374Z,11.10
2019-05-15T14:17:10.779Z,11.43
2019-05-15T14:19:43.790Z,9.67
2019-05-15T14:22:15.681Z,11.20
2019-05-15T14:24:48.940Z,10.83
2019-05-15T14:27:20.813Z,9.47
2019-05-15T14:29:53.817Z,10.90
2019-05-15T14:32:35.436Z,10.60
2019-05-15T14:34:58.564Z,11.47
2019-05-15T14:37:29.984Z,13.20
2019-05-15T14:40:01.294Z,11.63
2019-05-15T14:42:32.637Z,12.80
2019-05-15T14:45:05.157Z,13.50
2019-05-15T14:47:38.841Z,10.30
2019-05-15T14:50:10.634Z,10.77
2019-05-15T14:52:42.065Z,10.87
2019-05-15T14:55:13.590Z,10.67
2019-05-15T14:57:44.938Z,10.80
2019-05-15T15:00:19.851Z,12.17
2019-05-15T15:02:50.467Z,11.20
2019-05-15T15:05:23.267Z,11.67
2019-05-15T15:07:54.748Z,11.23
2019-05-15T15:10:43.614Z,10.73
2019-05-15T15:13:31.330Z,9.20
2019-05-15T15:16:08.496Z,9.60
2019-05-15T15:18:48.277Z,14.47
2019-05-15T15:21:32.962Z,8.97
2019-05-15T15:24:08.894Z,12.50
2019-05-15T15:26:46.202Z,10.10
2019-05-15T15:29:32.603Z,13.70
2019-05-15T15:32:18.543Z,9.43
2019-05-15T15:35:03.244Z,11.63
2019-05-15T15:37:44.730Z,7.97
2019-05-15T15:40:18.754Z,7.17
2019-05-15T15:42:49.402Z,10.10
2019-05-15T15:45:28.368Z,7.63
2019-05-15T15:48:13.724Z,7.27
2019-05-15T15:50:58.957Z,6.43
2019-05-15T15:53:40.928Z,6.23
2019-05-15T15:56:12.409Z,5.70
2019-05-15T15:58:48.914Z,5.37
2019-05-15T16:01:23.917Z,4.10
2019-05-15T16:03:58.791Z,4.33
2019-05-15T16:06:32.207Z,4.90
2019-05-15T16:09:05.308Z,5.40
2019-05-15T16:11:49.960Z,3.80
2019-05-15T16:14:22.794Z,4.20
2019-05-15T16:16:57.094Z,3.90
2019-05-15T16:19:28.529Z,4.63
2019-05-15T16:22:04.914Z,4.30
2019-05-15T16:24:41.287Z,5.83
2019-05-15T16:27:15.060Z,5.50
2019-05-15T16:29:46.695Z,5.13
2019-05-15T16:32:22.298Z,8.77
2019-05-15T16:34:59.990Z,4.40
2019-05-15T16:37:38.741Z,23.90
2019-05-15T16:40:13.393Z,5.47
2019-05-15T16:42:44.852Z,6.00
2019-05-15T16:45:19.059Z,4.50
2019-05-15T16:47:50.801Z,4.80
2019-05-15T16:50:22.080Z,4.17
2019-05-15T16:52:53.433Z,3.60
2019-05-15T16:55:24.852Z,4.90
2019-05-15T16:57:58.608Z,3.60
2019-05-15T17:00:30.090Z,3.97
2019-05-15T17:03:13.745Z,3.47
2019-05-15T17:05:35.183Z,3.70
2019-05-15T17:08:09.934Z,4.50
2019-05-15T17:10:42.837Z,5.20
2019-05-15T17:13:14.431Z,5.53
2019-05-15T17:15:47.846Z,5.13
2019-05-15T17:18:19.210Z,4.70
2019-05-15T17:20:52.066Z,5.70
2019-05-15T17:23:23.643Z,5.63
2019-05-15T17:25:57.925Z,6.13
2019-05-15T17:28:29.175Z,7.73
2019-05-15T17:31:02.132Z,6.60
2019-05-15T17:33:33.491Z,7.93
2019-05-15T17:36:04.866Z,5.30
2019-05-15T17:38:48.926Z,5.87
2019-05-15T17:41:31.945Z,6.27
2019-05-15T17:44:06.460Z,5.40
2019-05-15T17:46:54.619Z,6.30
2019-05-15T17:49:38.593Z,6.20
2019-05-15T17:52:29.296Z,5.67
2019-05-15T17:55:12.550Z,5.17
2019-05-15T17:57:57.114Z,5.80
2019-05-15T18:00:30.165Z,5.13
2019-05-15T18:03:04.365Z,4.83
2019-05-15T18:05:39.196Z,4.03
2019-05-15T18:08:10.868Z,6.30
2019-05-15T18:10:42.162Z,4.00
2019-05-15T18:13:13.706Z,4.60
2019-05-15T18:15:45.061Z,5.10
2019-05-15T18:18:18.670Z,4.00
2019-05-15T18:20:50.235Z,3.43
2019-05-15T18:23:23.906Z,3.50
2019-05-15T18:25:58.378Z,3.60
2019-05-15T18:28:33.099Z,3.57
2019-05-15T18:31:09.286Z,9.93
2019-05-15T18:33:53.110Z,4.30
2019-05-15T18:36:14.064Z,2.80
2019-05-15T18:38:48.877Z,2.90
2019-05-15T18:41:23.185Z,2.83
2019-05-15T18:43:57.764Z,2.60
2019-05-15T18:46:29.040Z,14.40
2019-05-15T18:49:01.965Z,6.73
2019-05-15T18:51:33.287Z,2.90
2019-05-15T18:54:04.572Z,2.90
2019-05-15T18:56:38.388Z,3.03
2019-05-15T18:59:08.912Z,3.07
2019-05-15T19:01:40.173Z,3.47
2019-05-15T19:04:11.482Z,3.20
2019-05-15T19:06:42.856Z,3.07
2019-05-15T19:09:14.242Z,4.97
2019-05-15T19:11:45.518Z,3.00
2019-05-15T19:14:19.005Z,2.80
2019-05-15T19:16:49.843Z,2.70
2019-05-15T19:19:21.127Z,2.97
2019-05-15T19:21:52.383Z,2.60
2019-05-15T19:24:25.419Z,3.60
2019-05-15T19:26:58.644Z,3.13
2019-05-15T19:29:29.767Z,3.27
2019-05-15T19:32:01.092Z,3.97
2019-05-15T19:34:32.383Z,3.77
2019-05-15T19:37:03.643Z,3.73
2019-05-15T19:39:34.902Z,3.03
2019-05-15T19:42:06.161Z,3.50
2019-05-15T19:44:37.869Z,3.20
2019-05-15T19:47:09.235Z,3.00
2019-05-15T19:49:40.510Z,2.90
2019-05-15T19:52:11.828Z,2.93
2019-05-15T19:54:44.801Z,3.33
2019-05-15T19:57:28.041Z,3.73
2019-05-15T20:00:35.970Z,2.97
2019-05-15T20:03:08.388Z,2.90
2019-05-15T20:06:18.677Z,2.40
2019-05-15T20:09:07.632Z,4.43
2019-05-15T20:11:38.731Z,2.87
2019-05-15T20:14:10.014Z,3.43
2019-05-15T20:16:41.382Z,3.60
2019-05-15T20:19:12.715Z,3.70
2019-05-15T20:21:44.406Z,4.43
2019-05-15T20:24:18.069Z,3.90
2019-05-15T20:26:48.798Z,3.90
2019-05-15T20:29:20.133Z,3.77
2019-05-15T20:31:51.441Z,4.73
2019-05-15T20:34:24.539Z,4.10
2019-05-15T20:36:58.631Z,5.17
2019-05-15T20:39:29.068Z,4.67
2019-05-15T20:42:00.482Z,4.47
2019-05-15T20:44:31.893Z,4.53
2019-05-15T20:47:03.318Z,6.17
2019-05-15T20:49:35.169Z,8.33
2019-05-15T20:52:06.640Z,5.67
2019-05-15T20:54:38.568Z,4.93
2019-05-15T20:57:10.218Z,4.73
2019-05-15T20:59:41.488Z,4.20
2019-05-15T21:02:14.891Z,5.00
2019-05-15T21:04:46.183Z,4.43
2019-05-15T21:07:27.600Z,5.40
2019-05-15T21:09:50.480Z,5.53
2019-05-15T21:12:21.960Z,5.30
2019-05-15T21:14:53.361Z,6.20
2019-05-15T21:17:24.827Z,7.37
2019-05-15T21:19:58.309Z,8.00
2019-05-15T21:22:29.390Z,8.33
2019-05-15T21:25:00.836Z,7.73
2019-05-15T21:27:33.682Z,8.80
2019-05-15T21:30:08.788Z,9.17
2019-05-15T21:32:39.004Z,9.33
2019-05-15T21:35:11.166Z,10.47
2019-05-15T21:37:42.410Z,10.20
2019-05-15T21:40:15.681Z,9.77
2019-05-15T21:42:49.122Z,9.90
2019-05-15T21:45:20.597Z,10.27
2019-05-15T21:47:53.772Z,10.53
2019-05-15T21:50:25.169Z,10.73
2019-05-15T21:52:58.185Z,11.13
2019-05-15T21:55:29.714Z,10.17
2019-05-15T21:58:02.585Z,10.37
2019-05-15T22:00:38.254Z,10.43
2019-05-15T22:03:10.081Z,12.87
2019-05-15T22:05:41.467Z,13.77
2019-05-15T22:08:12.875Z,13.00
2019-05-15T22:10:57.984Z,11.63
2019-05-15T22:13:39.321Z,12.90
2019-05-15T22:16:28.892Z,31.57
2019-05-15T22:19:00.549Z,10.23
2019-05-15T22:21:31.915Z,10.97
2019-05-15T22:24:39.557Z,10.07
2019-05-15T22:27:28.477Z,15.93
2019-05-15T22:29:59.357Z,12.90
2019-05-15T22:32:30.733Z,13.13
2019-05-15T22:35:09.718Z,14.97
2019-05-15T22:37:35.325Z,16.60
2019-05-15T22:40:08.903Z,18.43
2019-05-15T22:42:40.293Z,19.73
2019-05-15T22:45:12.025Z,18.63
2019-05-15T22:47:43.619Z,17.90
2019-05-15T22:50:15.110Z,18.20
2019-05-15T22:52:48.975Z,19.30
2019-05-15T22:55:19.684Z,20.27
2019-05-15T22:57:51.038Z,19.90
2019-05-15T23:00:22.516Z,19.10
2019-05-15T23:02:57.850Z,20.37
2019-05-15T23:05:31.803Z,21.70
2019-05-15T23:08:03.196Z,22.40
2019-05-15T23:10:34.687Z,25.50
2019-05-15T23:13:07.694Z,29.43
2019-05-15T23:15:39.889Z,23.17
2019-05-15T23:18:11.197Z,25.07
2019-05-15T23:20:42.662Z,25.07
2019-05-15T23:23:14.079Z,25.60
2019-05-15T23:25:45.489Z,22.60
2019-05-15T23:28:16.884Z,22.93
2019-05-15T23:30:48.620Z,25.07
2019-05-15T23:33:20.010Z,22.87
2019-05-15T23:35:51.414Z,23.20
2019-05-15T23:38:22.810Z,25.00
2019-05-15T23:40:54.102Z,23.73
2019-05-15T23:43:25.532Z,24.83
2019-05-15T23:45:59.008Z,22.63
2019-05-15T23:48:31.760Z,22.90
2019-05-15T23:51:03.065Z,24.63
2019-05-15T23:53:34.566Z,26.20
2019-05-15T23:56:05.990Z,28.93
2019-05-15T23:58:38.055Z,27.83
